createdAt,value
2017-12-01T00:01:55.696Z,13.13
2017-12-01T00:04:23.473Z,10.17
2017-12-01T00:06:51.019Z,12.77
2017-12-01T00:09:18.621Z,9.90
2017-12-01T00:11:46.547Z,10.47
2017-12-01T00:14:14.085Z,11.17
2017-12-01T00:16:41.763Z,11.90
2017-12-01T00:19:09.388Z,13.07
2017-12-01T00:21:36.951Z,12.63
2017-12-01T00:24:04.578Z,10.57
2017-12-01T00:26:32.139Z,9.60
2017-12-01T00:28:59.734Z,9.77
2017-12-01T00:31:27.318Z,7.37
2017-12-01T00:33:56.779Z,5.70
2017-12-01T00:36:24.394Z,6.40
2017-12-01T00:38:52.191Z,7.60
2017-12-01T00:41:19.749Z,9.60
2017-12-01T00:43:47.304Z,8.93
2017-12-01T00:46:14.842Z,6.30
2017-12-01T00:48:42.406Z,6.67
2017-12-01T00:51:10.157Z,6.50
2017-12-01T00:53:37.790Z,7.20
2017-12-01T00:56:05.345Z,6.57
2017-12-01T00:58:32.929Z,7.03
2017-12-01T01:01:00.499Z,7.30
2017-12-01T01:03:28.087Z,6.50
2017-12-01T01:05:55.609Z,7.70
2017-12-01T01:08:24.129Z,12.03
2017-12-01T01:10:51.684Z,11.67
2017-12-01T01:13:19.206Z,8.97
2017-12-01T01:15:46.790Z,9.87
2017-12-01T01:18:15.214Z,9.53
2017-12-01T01:20:42.775Z,11.17
2017-12-01T01:23:10.387Z,8.30
2017-12-01T01:25:38.017Z,7.00
2017-12-01T01:28:05.545Z,7.10
2017-12-01T01:30:33.153Z,9.07
2017-12-01T01:33:00.726Z,8.77
2017-12-01T01:35:28.324Z,7.27
2017-12-01T01:37:55.927Z,6.33
2017-12-01T01:40:23.489Z,6.20
2017-12-01T01:42:51.061Z,7.07
2017-12-01T01:45:18.694Z,6.97
2017-12-01T01:47:46.260Z,7.23
2017-12-01T01:50:13.779Z,6.97
2017-12-01T01:52:41.361Z,6.03
2017-12-01T01:55:09.572Z,7.57
2017-12-01T01:57:37.208Z,6.20
2017-12-01T02:00:07.105Z,6.00
2017-12-01T02:02:34.652Z,6.23
2017-12-01T02:05:02.268Z,6.93
2017-12-01T02:07:29.862Z,6.70
2017-12-01T02:09:57.410Z,6.30
2017-12-01T02:12:25.174Z,6.60
2017-12-01T02:14:52.758Z,6.73
2017-12-01T02:17:20.915Z,5.70
2017-12-01T02:19:48.478Z,5.90
2017-12-01T02:22:16.096Z,5.60
2017-12-01T02:24:43.677Z,5.00
2017-12-01T02:27:11.266Z,6.77
2017-12-01T02:29:38.937Z,5.80
2017-12-01T02:32:06.547Z,6.63
2017-12-01T02:34:34.143Z,5.60
2017-12-01T02:37:01.698Z,5.20
2017-12-01T02:39:29.277Z,6.40
2017-12-01T02:41:56.842Z,7.60
2017-12-01T02:44:24.427Z,5.90
2017-12-01T02:46:52.043Z,6.40
2017-12-01T02:49:19.611Z,6.20
2017-12-01T02:51:47.156Z,6.03
2017-12-01T02:54:14.718Z,9.90
2017-12-01T02:56:42.284Z,7.70
2017-12-01T02:59:09.833Z,7.00
2017-12-01T03:01:37.435Z,7.10
2017-12-01T03:04:05.000Z,6.93
2017-12-01T03:06:32.551Z,6.63
2017-12-01T03:09:00.109Z,6.90
2017-12-01T03:11:27.682Z,7.63
2017-12-01T03:13:55.200Z,6.23
2017-12-01T03:16:22.816Z,6.40
2017-12-01T03:18:50.372Z,6.50
2017-12-01T03:21:17.930Z,7.33
2017-12-01T03:23:45.518Z,6.77
2017-12-01T03:26:13.079Z,6.77
2017-12-01T03:28:40.610Z,6.80
2017-12-01T03:31:08.219Z,7.23
2017-12-01T03:33:35.778Z,7.30
2017-12-01T03:36:03.360Z,6.70
2017-12-01T03:38:30.929Z,6.60
2017-12-01T03:40:58.458Z,6.90
2017-12-01T03:43:26.049Z,6.57
2017-12-01T03:45:53.641Z,7.30
2017-12-01T03:48:21.198Z,6.40
2017-12-01T03:50:48.745Z,6.30
2017-12-01T03:53:16.450Z,7.17
2017-12-01T03:55:44.035Z,9.13
2017-12-01T03:58:11.601Z,7.70
2017-12-01T04:00:39.209Z,8.57
2017-12-01T04:03:07.000Z,10.30
2017-12-01T04:05:34.554Z,8.43
2017-12-01T04:08:02.145Z,8.63
2017-12-01T04:10:30.003Z,8.20
2017-12-01T04:12:57.663Z,9.33
2017-12-01T04:15:25.330Z,8.33
2017-12-01T04:17:52.901Z,7.83
2017-12-01T04:20:20.496Z,9.50
2017-12-01T04:22:48.071Z,8.80
2017-12-01T04:25:15.628Z,7.83
2017-12-01T04:27:43.177Z,7.70
2017-12-01T04:30:10.995Z,7.83
2017-12-01T04:32:38.581Z,7.90
2017-12-01T04:35:06.169Z,8.37
2017-12-01T04:37:33.732Z,8.50
2017-12-01T04:40:01.354Z,8.97
2017-12-01T04:42:28.893Z,7.97
2017-12-01T04:44:56.526Z,10.03
2017-12-01T04:47:24.119Z,8.00
2017-12-01T04:49:51.680Z,7.13
2017-12-01T04:52:19.350Z,6.50
2017-12-01T04:54:46.926Z,7.60
2017-12-01T04:57:15.193Z,8.60
2017-12-01T04:59:42.778Z,9.50
2017-12-01T05:02:10.394Z,8.10
2017-12-01T05:04:37.951Z,8.73
2017-12-01T05:07:05.530Z,9.37
2017-12-01T05:09:33.216Z,8.80
2017-12-01T05:12:01.395Z,10.07
2017-12-01T05:14:28.984Z,10.50
2017-12-01T05:16:56.606Z,9.17
2017-12-01T05:19:24.205Z,9.00
2017-12-01T05:21:52.762Z,10.40
2017-12-01T05:24:20.362Z,9.60
2017-12-01T05:26:47.929Z,11.27
2017-12-01T05:29:15.495Z,9.50
2017-12-01T05:31:43.080Z,10.37
2017-12-01T05:34:10.668Z,9.63
2017-12-01T05:36:38.865Z,10.30
2017-12-01T05:39:06.469Z,11.63
2017-12-01T05:41:34.022Z,12.07
2017-12-01T05:44:01.565Z,12.30
2017-12-01T05:46:29.202Z,13.90
2017-12-01T05:48:56.735Z,13.93
2017-12-01T05:51:24.334Z,12.97
2017-12-01T05:53:51.926Z,11.37
2017-12-01T05:56:19.535Z,10.90
2017-12-01T05:58:47.097Z,14.50
2017-12-01T06:01:14.701Z,14.80
2017-12-01T06:03:42.321Z,15.17
2017-12-01T06:06:09.895Z,14.47
2017-12-01T06:08:37.474Z,17.03
2017-12-01T06:11:05.327Z,17.30
2017-12-01T06:13:32.925Z,15.10
2017-12-01T06:16:00.636Z,15.53
2017-12-01T06:18:28.297Z,16.73
2017-12-01T06:20:55.887Z,18.60
2017-12-01T06:23:23.477Z,14.40
2017-12-01T06:25:51.068Z,16.77
2017-12-01T06:28:18.670Z,15.50
2017-12-01T06:30:46.277Z,14.13
2017-12-01T06:33:13.823Z,15.17
2017-12-01T06:35:41.382Z,14.10
2017-12-01T06:38:08.955Z,16.90
2017-12-01T06:40:37.256Z,15.80
2017-12-01T06:43:05.667Z,17.60
2017-12-01T06:45:38.305Z,15.33
2017-12-01T06:48:05.918Z,16.60
2017-12-01T06:50:33.528Z,19.80
2017-12-01T06:53:01.129Z,17.20
2017-12-01T06:55:28.846Z,15.40
2017-12-01T06:57:56.419Z,13.07
2017-12-01T07:00:24.100Z,16.20
2017-12-01T07:02:51.924Z,17.10
2017-12-01T07:05:20.296Z,15.07
2017-12-01T07:07:47.909Z,13.23
2017-12-01T07:10:15.467Z,12.67
2017-12-01T07:12:43.037Z,12.60
2017-12-01T07:15:10.589Z,12.07
2017-12-01T07:17:38.150Z,12.60
2017-12-01T07:20:05.909Z,13.73
2017-12-01T07:22:33.818Z,13.03
2017-12-01T07:25:01.476Z,10.67
2017-12-01T07:27:29.091Z,10.83
2017-12-01T07:29:56.889Z,9.47
2017-12-01T07:32:25.157Z,8.70
2017-12-01T07:34:52.731Z,8.43
2017-12-01T07:37:20.291Z,7.40
2017-12-01T07:39:47.920Z,6.60
2017-12-01T07:42:15.545Z,6.60
2017-12-01T07:44:48.678Z,5.73
2017-12-01T07:47:16.274Z,6.27
2017-12-01T07:49:44.035Z,6.10
2017-12-01T07:52:11.663Z,6.03
2017-12-01T07:54:39.218Z,5.83
2017-12-01T07:57:06.989Z,5.17
2017-12-01T07:59:34.597Z,6.00
2017-12-01T08:02:02.259Z,5.23
2017-12-01T08:04:30.242Z,5.70
2017-12-01T08:06:57.797Z,5.00
2017-12-01T08:09:25.405Z,6.33
2017-12-01T08:11:53.013Z,5.90
2017-12-01T08:14:20.663Z,6.33
2017-12-01T08:17:00.210Z,4.83
2017-12-01T08:19:27.778Z,5.77
2017-12-01T08:22:07.237Z,6.53
2017-12-01T08:24:46.582Z,6.83
2017-12-01T08:27:14.133Z,5.90
2017-12-01T08:29:41.744Z,6.67
2017-12-01T08:32:09.313Z,8.40
2017-12-01T08:34:36.869Z,7.07
2017-12-01T08:37:04.624Z,8.37
2017-12-01T08:39:32.244Z,9.33
2017-12-01T08:42:00.011Z,9.57
2017-12-01T08:44:27.592Z,10.80
2017-12-01T08:46:55.162Z,9.40
2017-12-01T08:49:23.013Z,8.77
2017-12-01T08:51:50.775Z,8.10
2017-12-01T08:54:18.659Z,8.27
2017-12-01T08:56:47.065Z,8.03
2017-12-01T08:59:14.662Z,8.90
2017-12-01T09:01:42.283Z,10.83
2017-12-01T09:04:09.890Z,11.20
2017-12-01T09:06:37.488Z,9.13
2017-12-01T09:09:05.098Z,10.10
2017-12-01T09:11:32.725Z,8.30
2017-12-01T09:14:00.279Z,8.17
2017-12-01T09:16:27.851Z,9.00
2017-12-01T09:18:55.663Z,8.87
2017-12-01T09:21:23.254Z,9.37
2017-12-01T09:23:50.809Z,9.27
2017-12-01T09:26:18.575Z,10.97
2017-12-01T09:28:46.179Z,11.23
2017-12-01T09:31:13.810Z,10.57
2017-12-01T09:33:41.627Z,10.53
2017-12-01T09:36:09.408Z,11.90
2017-12-01T09:38:37.012Z,11.77
2017-12-01T09:41:04.633Z,12.10
2017-12-01T09:43:32.454Z,14.53
2017-12-01T09:46:00.059Z,12.63
2017-12-01T09:48:27.640Z,11.90
2017-12-01T09:50:55.394Z,16.50
2017-12-01T09:53:23.001Z,18.13
2017-12-01T09:55:50.807Z,16.10
2017-12-01T09:58:18.385Z,13.30
2017-12-01T10:00:46.029Z,13.43
2017-12-01T10:03:13.621Z,11.37
2017-12-01T10:05:41.222Z,10.40
2017-12-01T10:08:08.844Z,11.90
2017-12-01T10:10:36.457Z,11.83
2017-12-01T10:13:04.239Z,12.40
2017-12-01T10:15:31.862Z,16.47
2017-12-01T10:17:59.627Z,17.80
2017-12-01T10:20:27.222Z,13.60
2017-12-01T10:22:55.606Z,14.53
2017-12-01T10:25:23.378Z,17.03
2017-12-01T10:27:51.003Z,20.53
2017-12-01T10:30:18.578Z,20.07
2017-12-01T10:32:46.339Z,18.37
2017-12-01T10:35:13.861Z,19.47
2017-12-01T10:37:41.694Z,21.50
2017-12-01T10:40:09.271Z,20.87
2017-12-01T10:42:37.053Z,18.13
2017-12-01T10:45:04.664Z,18.57
2017-12-01T10:47:32.273Z,15.83
2017-12-01T10:50:00.031Z,15.20
2017-12-01T10:52:27.600Z,20.33
2017-12-01T10:54:55.179Z,24.50
2017-12-01T10:57:22.773Z,24.13
2017-12-01T10:59:50.585Z,21.17
2017-12-01T11:02:18.217Z,19.47
2017-12-01T11:04:46.041Z,17.63
2017-12-01T11:07:13.641Z,19.67
2017-12-01T11:09:41.261Z,19.97
2017-12-01T11:12:09.034Z,17.27
2017-12-01T11:14:36.630Z,19.60
2017-12-01T11:17:04.217Z,19.50
2017-12-01T11:19:31.796Z,17.00
2017-12-01T11:21:59.546Z,18.60
2017-12-01T11:24:27.122Z,22.23
2017-12-01T11:26:54.727Z,20.97
2017-12-01T11:29:22.518Z,15.27
2017-12-01T11:31:50.076Z,13.53
2017-12-01T11:34:17.650Z,15.80
2017-12-01T11:36:45.242Z,14.40
2017-12-01T11:39:13.049Z,21.80
2017-12-01T11:41:40.578Z,19.57
2017-12-01T11:44:08.339Z,17.33
2017-12-01T11:46:35.975Z,19.20
2017-12-01T11:49:11.198Z,17.60
2017-12-01T11:51:39.815Z,18.23
2017-12-01T11:54:14.827Z,16.67
2017-12-01T11:56:42.432Z,15.90
2017-12-01T11:59:09.966Z,15.00
2017-12-01T12:01:37.567Z,13.77
2017-12-01T12:04:05.476Z,13.97
2017-12-01T12:06:40.842Z,16.50
2017-12-01T12:09:08.668Z,20.50
2017-12-01T12:11:40.128Z,18.00
2017-12-01T12:14:38.887Z,16.00
2017-12-01T12:17:10.088Z,16.43
2017-12-01T12:19:37.725Z,17.10
2017-12-01T12:22:12.597Z,15.33
2017-12-01T12:24:43.859Z,16.17
2017-12-01T12:27:11.486Z,16.30
2017-12-01T12:29:39.562Z,15.70
2017-12-01T12:32:07.130Z,16.00
2017-12-01T12:34:34.745Z,14.43
2017-12-01T12:37:02.365Z,16.43
2017-12-01T12:39:30.184Z,16.40
2017-12-01T12:42:05.395Z,18.97
2017-12-01T12:44:32.979Z,19.17
2017-12-01T12:47:00.575Z,21.60
2017-12-01T12:49:28.152Z,14.80
2017-12-01T12:51:55.812Z,15.40
2017-12-01T12:54:23.606Z,14.27
2017-12-01T12:56:51.445Z,19.07
2017-12-01T12:59:19.059Z,17.43
2017-12-01T13:01:46.664Z,16.60
2017-12-01T13:04:14.472Z,16.10
2017-12-01T13:06:49.417Z,15.53
2017-12-01T13:09:17.264Z,12.57
2017-12-01T13:11:52.703Z,12.10
2017-12-01T13:14:20.260Z,12.77
2017-12-01T13:16:47.831Z,14.37
2017-12-01T13:19:31.009Z,15.60
2017-12-01T13:21:59.014Z,15.00
2017-12-01T13:24:33.797Z,16.80
2017-12-01T13:27:01.407Z,15.67
2017-12-01T13:29:28.966Z,15.57
2017-12-01T13:31:56.568Z,18.60
2017-12-01T13:34:24.205Z,18.37
2017-12-01T13:36:51.831Z,20.57
2017-12-01T13:39:19.433Z,22.40
2017-12-01T13:41:47.024Z,20.17
2017-12-01T13:44:14.684Z,19.10
2017-12-01T13:46:42.284Z,19.07
2017-12-01T13:49:09.864Z,21.57
2017-12-01T13:51:37.643Z,19.47
2017-12-01T13:54:05.239Z,20.17
2017-12-01T13:56:32.861Z,20.17
2017-12-01T13:59:00.470Z,21.40
2017-12-01T14:01:28.261Z,21.90
2017-12-01T14:03:55.830Z,22.23
2017-12-01T14:06:23.428Z,24.53
2017-12-01T14:08:51.006Z,22.17
2017-12-01T14:11:18.669Z,20.60
2017-12-01T14:13:46.417Z,19.77
2017-12-01T14:16:13.991Z,16.73
2017-12-01T14:18:41.541Z,18.90
2017-12-01T14:21:09.121Z,17.80
2017-12-01T14:23:36.685Z,18.20
2017-12-01T14:26:04.233Z,19.33
2017-12-01T14:28:31.816Z,19.20
2017-12-01T14:30:59.421Z,19.63
2017-12-01T14:33:27.205Z,18.87
2017-12-01T14:35:54.964Z,20.87
2017-12-01T14:38:23.434Z,19.97
2017-12-01T14:40:51.130Z,20.50
2017-12-01T14:43:18.770Z,16.40
2017-12-01T14:45:46.541Z,16.10
2017-12-01T14:48:14.296Z,15.20
2017-12-01T14:50:42.789Z,16.63
2017-12-01T14:53:10.429Z,14.50
2017-12-01T14:55:38.014Z,17.57
2017-12-01T14:58:05.549Z,19.27
2017-12-01T15:00:33.387Z,18.50
2017-12-01T15:03:01.109Z,17.10
2017-12-01T15:05:28.650Z,12.90
2017-12-01T15:07:56.386Z,15.40
2017-12-01T15:10:24.048Z,16.60
2017-12-01T15:12:53.313Z,19.30
2017-12-01T15:15:21.024Z,19.67
2017-12-01T15:17:48.808Z,19.20
2017-12-01T15:20:16.349Z,18.90
2017-12-01T15:22:43.991Z,16.53
2017-12-01T15:25:11.828Z,15.10
2017-12-01T15:27:39.484Z,15.83
2017-12-01T15:30:08.008Z,15.50
2017-12-01T15:32:35.566Z,18.87
2017-12-01T15:35:03.248Z,20.57
2017-12-01T15:37:30.917Z,20.03
2017-12-01T15:39:58.515Z,19.03
2017-12-01T15:42:26.284Z,19.97
2017-12-01T15:44:54.120Z,18.40
2017-12-01T15:47:21.721Z,19.97
2017-12-01T15:49:49.470Z,17.80
2017-12-01T15:52:17.037Z,15.53
2017-12-01T15:54:44.608Z,16.80
2017-12-01T15:57:12.219Z,16.73
2017-12-01T15:59:40.160Z,16.63
2017-12-01T16:02:07.796Z,19.47
2017-12-01T16:04:35.496Z,19.47
2017-12-01T16:07:04.063Z,18.00
2017-12-01T16:09:31.663Z,15.47
2017-12-01T16:11:59.228Z,19.67
2017-12-01T16:14:26.847Z,20.47
2017-12-01T16:16:54.522Z,18.13
2017-12-01T16:19:22.460Z,17.00
2017-12-01T16:21:50.667Z,19.60
2017-12-01T16:24:18.271Z,20.10
2017-12-01T16:26:45.871Z,22.80
2017-12-01T16:29:13.495Z,18.93
2017-12-01T16:31:41.196Z,18.80
2017-12-01T16:34:08.907Z,19.87
2017-12-01T16:36:36.833Z,21.97
2017-12-01T16:39:04.487Z,28.30
2017-12-01T16:41:32.094Z,27.57
2017-12-01T16:44:06.876Z,27.93
2017-12-01T16:46:34.484Z,26.03
2017-12-01T16:49:02.095Z,24.00
2017-12-01T16:51:29.725Z,23.53
2017-12-01T16:53:57.494Z,22.97
2017-12-01T16:56:25.138Z,27.50
2017-12-01T16:58:52.723Z,21.07
2017-12-01T17:01:21.265Z,19.13
2017-12-01T17:03:48.878Z,21.90
2017-12-01T17:06:17.296Z,23.30
2017-12-01T17:08:45.032Z,20.83
2017-12-01T17:11:50.216Z,23.30
2017-12-01T17:14:28.522Z,19.80
2017-12-01T17:16:56.141Z,23.47
2017-12-01T17:19:23.775Z,16.23
2017-12-01T17:21:52.274Z,17.27
2017-12-01T17:24:27.633Z,19.10
2017-12-01T17:26:55.240Z,17.17
2017-12-01T17:29:26.259Z,16.93
2017-12-01T17:31:57.653Z,16.90
2017-12-01T17:37:15.802Z,16.60
2017-12-01T17:39:44.097Z,18.07
2017-12-01T17:42:11.878Z,19.47
2017-12-01T17:44:43.080Z,20.10
2017-12-01T17:47:10.873Z,20.93
2017-12-01T17:49:38.690Z,20.87
2017-12-01T17:56:06.264Z,21.37
2017-12-01T18:05:15.163Z,21.57
2017-12-01T18:07:42.964Z,21.73
2017-12-01T18:10:11.463Z,22.70
2017-12-01T18:12:39.117Z,21.77
2017-12-01T18:15:06.740Z,21.17
2017-12-01T18:17:34.421Z,21.47
2017-12-01T18:20:02.148Z,21.60
2017-12-01T18:22:29.934Z,23.27
2017-12-01T18:24:58.948Z,22.93
2017-12-01T18:27:26.552Z,20.17
2017-12-01T18:30:24.887Z,20.53
2017-12-01T18:33:00.478Z,20.10
2017-12-01T18:35:28.560Z,20.53
2017-12-01T18:37:56.185Z,19.87
2017-12-01T18:40:23.837Z,20.33
2017-12-01T18:42:51.866Z,19.80
2017-12-01T18:48:05.678Z,16.00
2017-12-01T18:50:34.948Z,16.87
2017-12-01T18:53:03.363Z,16.80
2017-12-01T18:55:31.400Z,16.00
2017-12-01T18:57:59.060Z,14.80
2017-12-01T19:00:26.683Z,15.00
2017-12-01T19:03:01.438Z,14.37
2017-12-01T19:05:29.262Z,14.10
2017-12-01T19:11:28.313Z,13.17
2017-12-01T19:13:55.882Z,12.73
2017-12-01T19:16:23.573Z,11.93
2017-12-01T19:18:52.124Z,12.40
2017-12-01T19:21:20.347Z,12.77
2017-12-01T19:23:49.278Z,11.90
2017-12-01T19:26:17.822Z,12.80
2017-12-01T19:28:45.559Z,12.13
2017-12-01T19:31:14.097Z,11.97
2017-12-01T19:33:42.583Z,10.40
2017-12-01T19:36:10.134Z,10.27
2017-12-01T19:38:38.482Z,9.20
2017-12-01T19:41:08.435Z,9.67
2017-12-01T19:43:37.597Z,8.10
2017-12-01T19:46:06.755Z,7.33
2017-12-01T19:48:37.832Z,8.07
2017-12-01T19:51:06.940Z,11.03
2017-12-01T19:53:36.270Z,9.13
2017-12-01T19:56:04.284Z,9.07
2017-12-01T19:58:33.948Z,8.53
2017-12-01T20:01:08.118Z,10.60
2017-12-01T20:03:38.638Z,10.63
2017-12-01T20:06:07.723Z,9.53
2017-12-01T20:08:36.565Z,8.87
2017-12-01T20:11:09.736Z,8.50
2017-12-01T20:13:39.252Z,8.20
2017-12-01T20:16:08.514Z,6.80
2017-12-01T20:18:36.558Z,10.33
2017-12-01T20:21:04.326Z,5.80
2017-12-01T20:23:32.634Z,5.70
2017-12-01T20:26:00.494Z,6.80
2017-12-01T20:28:31.408Z,6.77
2017-12-01T20:31:00.286Z,7.27
2017-12-01T20:33:27.927Z,7.80
2017-12-01T20:36:16.143Z,8.23
2017-12-01T20:38:51.701Z,9.47
2017-12-01T20:41:19.402Z,12.97
2017-12-01T20:43:47.193Z,11.00
2017-12-01T20:46:15.457Z,11.40
2017-12-01T20:48:43.217Z,11.37
2017-12-01T20:51:10.992Z,11.83
2017-12-01T20:53:38.585Z,11.53
2017-12-01T20:56:06.355Z,13.67
2017-12-01T20:58:34.220Z,12.40
2017-12-01T21:01:01.893Z,13.07
2017-12-01T21:07:00.143Z,14.90
2017-12-01T21:09:27.943Z,15.03
2017-12-01T21:12:29.753Z,14.67
2017-12-01T21:14:58.072Z,14.00
2017-12-01T21:17:26.616Z,14.40
2017-12-01T21:19:54.361Z,12.57
2017-12-01T21:22:22.610Z,13.27
2017-12-01T21:24:50.194Z,13.57
2017-12-01T21:27:17.839Z,13.23
2017-12-01T21:29:46.292Z,10.07
2017-12-01T21:32:14.392Z,8.67
2017-12-01T21:34:42.009Z,8.70
2017-12-01T21:37:09.705Z,8.80
2017-12-01T21:39:37.306Z,9.07
2017-12-01T21:42:04.914Z,9.37
2017-12-01T21:44:32.564Z,9.30
2017-12-01T21:47:00.237Z,8.27
2017-12-01T21:49:28.227Z,8.93
2017-12-01T21:51:56.783Z,9.00
2017-12-01T21:54:24.395Z,9.63
2017-12-01T21:56:52.061Z,10.80
2017-12-01T21:59:20.091Z,9.97
2017-12-01T22:01:47.730Z,9.80
2017-12-01T22:04:15.362Z,9.40
2017-12-01T22:06:43.010Z,10.13
2017-12-01T22:09:10.597Z,9.17
2017-12-01T22:11:38.202Z,10.37
2017-12-01T22:14:06.342Z,8.03
2017-12-01T22:16:33.974Z,9.87
2017-12-01T22:19:01.519Z,10.17
2017-12-01T22:21:29.067Z,9.07
2017-12-01T22:23:56.657Z,9.40
2017-12-01T22:26:24.258Z,9.80
2017-12-01T22:28:51.893Z,9.10
2017-12-01T22:31:19.469Z,8.30
2017-12-01T22:33:47.063Z,8.83
2017-12-01T22:36:14.844Z,7.37
2017-12-01T22:38:42.500Z,7.27
2017-12-01T22:41:10.302Z,7.60
2017-12-01T22:43:38.086Z,7.63
2017-12-01T22:46:05.716Z,6.37
2017-12-01T22:48:33.498Z,6.60
2017-12-01T22:51:01.056Z,6.57
2017-12-01T22:53:28.646Z,6.40
2017-12-01T22:55:56.212Z,9.00
2017-12-01T22:58:24.193Z,7.07
2017-12-01T23:00:51.876Z,6.53
2017-12-01T23:03:19.597Z,7.10
2017-12-01T23:05:47.801Z,6.77
2017-12-01T23:08:15.457Z,6.30
2017-12-01T23:10:43.039Z,6.80
2017-12-01T23:13:10.900Z,6.80
2017-12-01T23:15:38.803Z,6.80
2017-12-01T23:18:07.366Z,6.17
2017-12-01T23:20:35.183Z,6.17
2017-12-01T23:23:03.252Z,8.20
2017-12-01T23:25:30.860Z,6.80
2017-12-01T23:27:58.441Z,7.87
2017-12-01T23:30:26.040Z,7.70
2017-12-01T23:33:00.981Z,7.67
2017-12-01T23:35:30.179Z,7.97
2017-12-01T23:37:57.964Z,7.30
2017-12-01T23:47:08.494Z,8.10
2017-12-01T23:49:36.294Z,7.43
2017-12-01T23:52:06.228Z,5.50
2017-12-01T23:54:41.065Z,5.33
2017-12-01T23:57:08.698Z,5.17
2017-12-01T23:59:36.461Z,5.20
